Terminal Aerodrome Forecast
Issued by NWS Grand Rapids, MI

Home | Current Version | Previous Version | Text Only | Print | Product List | Glossary On
Versions: 1 2 3 4 5 6 7 8 9 10 11 12 13 14 15 16 17 18 19 20 21 22 23 24 25 26 27
000
FTUS43 KGRR 011100 RRA
TAFGRR
TAF
KGRR 011144Z 0112/0212 18010KT 5SM BR SCT008 BKN100
     FM011400 19012G23KT P6SM VCSH BKN012
     FM011600 22014G24KT P6SM VCTS BKN035CB
     FM012300 24011KT P6SM BKN040
     FM020500 27006KT P6SM BKN025=

USA.gov is the U.S. government's official web portal to all federal, state and local government web resources and services.